sensor_id;sensor_type;location;lat;lon;timestamp;P1;durP1;ratioP1;P2;durP2;ratioP2
12719;SDS011;6424;48.520;11.228;2022-07-29T00:00:41;3.10;;;2.77;;
12719;SDS011;6424;48.520;11.228;2022-07-29T00:03:24;4.17;;;2.90;;
12719;SDS011;6424;48.520;11.228;2022-07-29T00:06:05;3.00;;;2.60;;
12719;SDS011;6424;48.520;11.228;2022-07-29T00:08:46;3.37;;;2.70;;
12719;SDS011;6424;48.520;11.228;2022-07-29T00:11:27;3.53;;;2.50;;
12719;SDS011;6424;48.520;11.228;2022-07-29T00:14:08;4.27;;;2.70;;
12719;SDS011;6424;48.520;11.228;2022-07-29T00:16:49;2.83;;;2.53;;
12719;SDS011;6424;48.520;11.228;2022-07-29T00:19:30;2.57;;;2.37;;
12719;SDS011;6424;48.520;11.228;2022-07-29T00:22:10;3.00;;;2.77;;
12719;SDS011;6424;48.520;11.228;2022-07-29T00:24:51;3.17;;;2.33;;
12719;SDS011;6424;48.520;11.228;2022-07-29T00:27:32;3.17;;;2.40;;
12719;SDS011;6424;48.520;11.228;2022-07-29T00:30:12;5.17;;;2.70;;
12719;SDS011;6424;48.520;11.228;2022-07-29T00:32:53;3.57;;;2.40;;
12719;SDS011;6424;48.520;11.228;2022-07-29T00:35:34;3.30;;;2.40;;
12719;SDS011;6424;48.520;11.228;2022-07-29T00:38:24;3.20;;;2.90;;
12719;SDS011;6424;48.520;11.228;2022-07-29T00:41:04;2.87;;;2.67;;
12719;SDS011;6424;48.520;11.228;2022-07-29T00:43:45;2.70;;;2.47;;
12719;SDS011;6424;48.520;11.228;2022-07-29T00:46:26;3.33;;;2.57;;
12719;SDS011;6424;48.520;11.228;2022-07-29T00:49:07;3.97;;;2.83;;
12719;SDS011;6424;48.520;11.228;2022-07-29T00:51:48;3.33;;;3.07;;
12719;SDS011;6424;48.520;11.228;2022-07-29T00:54:30;3.47;;;3.17;;
12719;SDS011;6424;48.520;11.228;2022-07-29T00:57:11;3.77;;;3.33;;
12719;SDS011;6424;48.520;11.228;2022-07-29T00:59:52;3.37;;;2.70;;
12719;SDS011;6424;48.520;11.228;2022-07-29T01:02:33;2.80;;;2.47;;
12719;SDS011;6424;48.520;11.228;2022-07-29T01:05:14;3.20;;;3.00;;
12719;SDS011;6424;48.520;11.228;2022-07-29T01:07:58;3.03;;;2.77;;
12719;SDS011;6424;48.520;11.228;2022-07-29T01:10:39;3.40;;;3.10;;
12719;SDS011;6424;48.520;11.228;2022-07-29T01:13:21;3.83;;;2.80;;
12719;SDS011;6424;48.520;11.228;2022-07-29T01:16:03;3.10;;;2.80;;
12719;SDS011;6424;48.520;11.228;2022-07-29T01:18:50;3.07;;;2.70;;
12719;SDS011;6424;48.520;11.228;2022-07-29T01:21:50;3.87;;;3.50;;
12719;SDS011;6424;48.520;11.228;2022-07-29T01:30:10;3.93;;;3.23;;
12719;SDS011;6424;48.520;11.228;2022-07-29T01:32:54;3.40;;;3.10;;
12719;SDS011;6424;48.520;11.228;2022-07-29T01:35:40;3.77;;;3.03;;
12719;SDS011;6424;48.520;11.228;2022-07-29T01:38:22;4.13;;;3.73;;
12719;SDS011;6424;48.520;11.228;2022-07-29T01:41:15;3.83;;;3.30;;
12719;SDS011;6424;48.520;11.228;2022-07-29T01:43:59;4.67;;;3.47;;
12719;SDS011;6424;48.520;11.228;2022-07-29T01:46:54;3.40;;;3.10;;
12719;SDS011;6424;48.520;11.228;2022-07-29T01:49:39;3.80;;;3.50;;
12719;SDS011;6424;48.520;11.228;2022-07-29T01:52:26;3.43;;;3.10;;
12719;SDS011;6424;48.520;11.228;2022-07-29T01:55:09;4.03;;;3.70;;
12719;SDS011;6424;48.520;11.228;2022-07-29T01:57:57;3.77;;;3.20;;
12719;SDS011;6424;48.520;11.228;2022-07-29T02:00:40;4.50;;;3.40;;
12719;SDS011;6424;48.520;11.228;2022-07-29T02:03:21;4.23;;;3.73;;
12719;SDS011;6424;48.520;11.228;2022-07-29T02:06:03;5.03;;;3.90;;
12719;SDS011;6424;48.520;11.228;2022-07-29T02:08:47;5.17;;;3.40;;
12719;SDS011;6424;48.520;11.228;2022-07-29T02:11:33;4.37;;;3.77;;
12719;SDS011;6424;48.520;11.228;2022-07-29T02:14:17;5.33;;;2.90;;
12719;SDS011;6424;48.520;11.228;2022-07-29T02:16:45;5.20;;;3.40;;
12719;SDS011;6424;48.520;11.228;2022-07-29T02:19:30;3.20;;;2.90;;
12719;SDS011;6424;48.520;11.228;2022-07-29T02:22:13;3.63;;;3.27;;
12719;SDS011;6424;48.520;11.228;2022-07-29T02:24:55;3.80;;;3.40;;
12719;SDS011;6424;48.520;11.228;2022-07-29T02:27:37;4.37;;;3.37;;
12719;SDS011;6424;48.520;11.228;2022-07-29T02:30:19;4.93;;;3.17;;
12719;SDS011;6424;48.520;11.228;2022-07-29T02:33:03;3.60;;;3.30;;
12719;SDS011;6424;48.520;11.228;2022-07-29T02:35:45;2.97;;;2.77;;
12719;SDS011;6424;48.520;11.228;2022-07-29T02:38:27;3.70;;;3.40;;
12719;SDS011;6424;48.520;11.228;2022-07-29T02:44:11;3.47;;;3.17;;
12719;SDS011;6424;48.520;11.228;2022-07-29T02:52:54;3.87;;;2.80;;
12719;SDS011;6424;48.520;11.228;2022-07-29T02:55:43;3.10;;;2.80;;
12719;SDS011;6424;48.520;11.228;2022-07-29T03:01:23;3.77;;;2.90;;
12719;SDS011;6424;48.520;11.228;2022-07-29T03:04:05;3.40;;;2.97;;
12719;SDS011;6424;48.520;11.228;2022-07-29T03:06:48;3.40;;;3.10;;
12719;SDS011;6424;48.520;11.228;2022-07-29T03:09:31;3.27;;;2.70;;
12719;SDS011;6424;48.520;11.228;2022-07-29T03:12:12;2.93;;;2.70;;
12719;SDS011;6424;48.520;11.228;2022-07-29T03:14:55;3.50;;;3.20;;
12719;SDS011;6424;48.520;11.228;2022-07-29T03:17:36;3.00;;;2.70;;
12719;SDS011;6424;48.520;11.228;2022-07-29T03:20:19;4.40;;;2.73;;
12719;SDS011;6424;48.520;11.228;2022-07-29T03:23:00;6.10;;;3.53;;
12719;SDS011;6424;48.520;11.228;2022-07-29T03:25:41;3.37;;;3.07;;
12719;SDS011;6424;48.520;11.228;2022-07-29T03:28:23;3.97;;;3.57;;
12719;SDS011;6424;48.520;11.228;2022-07-29T03:31:04;3.97;;;3.33;;
12719;SDS011;6424;48.520;11.228;2022-07-29T03:33:30;4.20;;;3.80;;
12719;SDS011;6424;48.520;11.228;2022-07-29T03:36:11;4.67;;;4.27;;
12719;SDS011;6424;48.520;11.228;2022-07-29T03:38:51;4.93;;;3.70;;
12719;SDS011;6424;48.520;11.228;2022-07-29T03:41:33;5.63;;;3.50;;
12719;SDS011;6424;48.520;11.228;2022-07-29T03:44:15;4.77;;;4.10;;
12719;SDS011;6424;48.520;11.228;2022-07-29T03:46:43;3.50;;;3.20;;
12719;SDS011;6424;48.520;11.228;2022-07-29T03:49:26;3.53;;;3.20;;
12719;SDS011;6424;48.520;11.228;2022-07-29T03:52:07;4.50;;;4.10;;
12719;SDS011;6424;48.520;11.228;2022-07-29T03:54:48;5.43;;;3.77;;
12719;SDS011;6424;48.520;11.228;2022-07-29T03:57:30;4.20;;;3.80;;
12719;SDS011;6424;48.520;11.228;2022-07-29T04:00:12;3.97;;;3.57;;
12719;SDS011;6424;48.520;11.228;2022-07-29T04:02:55;4.07;;;3.67;;
12719;SDS011;6424;48.520;11.228;2022-07-29T04:05:37;4.20;;;3.80;;
12719;SDS011;6424;48.520;11.228;2022-07-29T04:08:18;4.20;;;3.80;;
12719;SDS011;6424;48.520;11.228;2022-07-29T04:10:59;4.00;;;3.70;;
12719;SDS011;6424;48.520;11.228;2022-07-29T04:13:40;3.33;;;3.13;;
12719;SDS011;6424;48.520;11.228;2022-07-29T04:16:06;5.67;;;3.20;;
12719;SDS011;6424;48.520;11.228;2022-07-29T04:18:47;4.10;;;3.70;;
12719;SDS011;6424;48.520;11.228;2022-07-29T04:21:27;4.10;;;3.67;;
12719;SDS011;6424;48.520;11.228;2022-07-29T04:23:53;6.33;;;4.40;;
12719;SDS011;6424;48.520;11.228;2022-07-29T04:26:34;5.97;;;4.63;;
12719;SDS011;6424;48.520;11.228;2022-07-29T04:29:15;7.00;;;4.70;;
12719;SDS011;6424;48.520;11.228;2022-07-29T04:31:56;5.40;;;4.37;;
12719;SDS011;6424;48.520;11.228;2022-07-29T04:34:36;4.53;;;3.87;;
12719;SDS011;6424;48.520;11.228;2022-07-29T04:37:18;4.53;;;4.17;;
12719;SDS011;6424;48.520;11.228;2022-07-29T04:39:58;4.23;;;3.67;;
12719;SDS011;6424;48.520;11.228;2022-07-29T04:42:39;5.13;;;4.53;;
12719;SDS011;6424;48.520;11.228;2022-07-29T04:45:05;5.20;;;4.30;;
12719;SDS011;6424;48.520;11.228;2022-07-29T04:47:46;4.73;;;4.33;;
12719;SDS011;6424;48.520;11.228;2022-07-29T04:50:12;4.93;;;4.53;;
12719;SDS011;6424;48.520;11.228;2022-07-29T04:52:53;4.70;;;4.20;;
12719;SDS011;6424;48.520;11.228;2022-07-29T04:55:34;4.37;;;3.97;;
12719;SDS011;6424;48.520;11.228;2022-07-29T04:58:14;6.40;;;4.40;;
12719;SDS011;6424;48.520;11.228;2022-07-29T05:00:55;4.87;;;3.73;;
12719;SDS011;6424;48.520;11.228;2022-07-29T05:03:36;5.67;;;4.30;;
12719;SDS011;6424;48.520;11.228;2022-07-29T05:06:17;6.23;;;3.63;;
12719;SDS011;6424;48.520;11.228;2022-07-29T05:08:58;4.20;;;3.83;;
12719;SDS011;6424;48.520;11.228;2022-07-29T05:11:39;3.30;;;3.00;;
12719;SDS011;6424;48.520;11.228;2022-07-29T05:14:19;4.40;;;3.20;;
12719;SDS011;6424;48.520;11.228;2022-07-29T05:17:00;3.40;;;3.10;;
12719;SDS011;6424;48.520;11.228;2022-07-29T05:19:41;3.13;;;2.83;;
12719;SDS011;6424;48.520;11.228;2022-07-29T05:22:22;3.03;;;2.67;;
12719;SDS011;6424;48.520;11.228;2022-07-29T05:25:03;3.47;;;2.90;;
12719;SDS011;6424;48.520;11.228;2022-07-29T05:27:29;3.10;;;2.80;;
12719;SDS011;6424;48.520;11.228;2022-07-29T05:30:10;3.20;;;2.90;;
12719;SDS011;6424;48.520;11.228;2022-07-29T05:32:51;3.33;;;3.00;;
12719;SDS011;6424;48.520;11.228;2022-07-29T05:35:17;3.13;;;2.83;;
12719;SDS011;6424;48.520;11.228;2022-07-29T05:37:58;3.50;;;3.20;;
12719;SDS011;6424;48.520;11.228;2022-07-29T05:40:39;3.50;;;3.20;;
12719;SDS011;6424;48.520;11.228;2022-07-29T05:43:20;4.07;;;3.50;;
12719;SDS011;6424;48.520;11.228;2022-07-29T05:46:01;3.47;;;2.73;;
12719;SDS011;6424;48.520;11.228;2022-07-29T05:48:42;3.27;;;2.97;;
12719;SDS011;6424;48.520;11.228;2022-07-29T05:51:22;5.73;;;3.23;;
12719;SDS011;6424;48.520;11.228;2022-07-29T05:54:03;5.13;;;3.40;;
12719;SDS011;6424;48.520;11.228;2022-07-29T05:56:44;4.37;;;3.37;;
12719;SDS011;6424;48.520;11.228;2022-07-29T05:59:25;3.30;;;3.00;;
12719;SDS011;6424;48.520;11.228;2022-07-29T06:02:06;3.97;;;3.40;;
12719;SDS011;6424;48.520;11.228;2022-07-29T06:04:32;3.30;;;2.97;;
12719;SDS011;6424;48.520;11.228;2022-07-29T06:07:13;5.80;;;2.97;;
12719;SDS011;6424;48.520;11.228;2022-07-29T06:09:54;3.83;;;3.27;;
12719;SDS011;6424;48.520;11.228;2022-07-29T06:12:35;3.53;;;3.23;;
12719;SDS011;6424;48.520;11.228;2022-07-29T06:15:15;3.67;;;3.00;;
12719;SDS011;6424;48.520;11.228;2022-07-29T06:17:56;2.80;;;2.50;;
12719;SDS011;6424;48.520;11.228;2022-07-29T06:20:37;3.77;;;2.50;;
12719;SDS011;6424;48.520;11.228;2022-07-29T06:23:18;3.20;;;2.30;;
12719;SDS011;6424;48.520;11.228;2022-07-29T06:25:45;3.63;;;2.50;;
12719;SDS011;6424;48.520;11.228;2022-07-29T06:28:26;3.23;;;2.20;;
12719;SDS011;6424;48.520;11.228;2022-07-29T06:31:07;2.43;;;2.23;;
12719;SDS011;6424;48.520;11.228;2022-07-29T06:33:48;3.80;;;2.00;;
12719;SDS011;6424;48.520;11.228;2022-07-29T06:36:29;2.40;;;2.20;;
12719;SDS011;6424;48.520;11.228;2022-07-29T06:38:55;2.40;;;2.17;;
12719;SDS011;6424;48.520;11.228;2022-07-29T06:41:36;4.37;;;2.07;;
12719;SDS011;6424;48.520;11.228;2022-07-29T06:44:17;2.33;;;2.00;;
12719;SDS011;6424;48.520;11.228;2022-07-29T06:46:58;2.30;;;2.10;;
12719;SDS011;6424;48.520;11.228;2022-07-29T06:49:38;2.30;;;2.00;;
12719;SDS011;6424;48.520;11.228;2022-07-29T06:52:19;2.30;;;2.10;;
12719;SDS011;6424;48.520;11.228;2022-07-29T06:55:00;2.83;;;2.03;;
12719;SDS011;6424;48.520;11.228;2022-07-29T06:57:41;2.47;;;2.13;;
12719;SDS011;6424;48.520;11.228;2022-07-29T07:00:22;2.40;;;2.20;;
12719;SDS011;6424;48.520;11.228;2022-07-29T07:03:03;4.70;;;2.00;;
12719;SDS011;6424;48.520;11.228;2022-07-29T07:05:44;2.47;;;2.07;;
12719;SDS011;6424;48.520;11.228;2022-07-29T07:08:25;2.20;;;2.00;;
12719;SDS011;6424;48.520;11.228;2022-07-29T07:11:06;2.27;;;1.90;;
12719;SDS011;6424;48.520;11.228;2022-07-29T07:13:47;2.30;;;1.97;;
12719;SDS011;6424;48.520;11.228;2022-07-29T07:16:28;2.23;;;2.03;;
12719;SDS011;6424;48.520;11.228;2022-07-29T07:19:09;2.10;;;1.77;;
12719;SDS011;6424;48.520;11.228;2022-07-29T07:21:50;2.57;;;2.00;;
12719;SDS011;6424;48.520;11.228;2022-07-29T07:24:31;2.47;;;2.10;;
12719;SDS011;6424;48.520;11.228;2022-07-29T07:27:11;2.53;;;1.90;;
12719;SDS011;6424;48.520;11.228;2022-07-29T07:29:52;2.03;;;1.87;;
12719;SDS011;6424;48.520;11.228;2022-07-29T07:32:33;1.70;;;1.50;;
12719;SDS011;6424;48.520;11.228;2022-07-29T07:35:14;2.00;;;1.80;;
12719;SDS011;6424;48.520;11.228;2022-07-29T07:37:56;2.10;;;1.90;;
12719;SDS011;6424;48.520;11.228;2022-07-29T07:40:36;1.50;;;1.40;;
12719;SDS011;6424;48.520;11.228;2022-07-29T07:43:02;3.13;;;2.10;;
12719;SDS011;6424;48.520;11.228;2022-07-29T07:45:43;1.50;;;1.40;;
12719;SDS011;6424;48.520;11.228;2022-07-29T07:48:24;2.30;;;1.70;;
12719;SDS011;6424;48.520;11.228;2022-07-29T07:51:05;1.40;;;1.30;;
12719;SDS011;6424;48.520;11.228;2022-07-29T07:53:45;1.80;;;1.60;;
12719;SDS011;6424;48.520;11.228;2022-07-29T07:56:29;3.00;;;1.63;;
12719;SDS011;6424;48.520;11.228;2022-07-29T07:59:10;1.60;;;1.30;;
12719;SDS011;6424;48.520;11.228;2022-07-29T08:01:51;1.57;;;1.30;;
12719;SDS011;6424;48.520;11.228;2022-07-29T08:04:32;1.53;;;1.40;;
12719;SDS011;6424;48.520;11.228;2022-07-29T08:07:13;1.70;;;1.60;;
12719;SDS011;6424;48.520;11.228;2022-07-29T08:09:54;1.83;;;1.43;;
12719;SDS011;6424;48.520;11.228;2022-07-29T08:12:35;3.73;;;1.60;;
12719;SDS011;6424;48.520;11.228;2022-07-29T08:15:16;1.80;;;1.53;;
12719;SDS011;6424;48.520;11.228;2022-07-29T08:17:57;2.07;;;1.67;;
12719;SDS011;6424;48.520;11.228;2022-07-29T08:20:38;2.00;;;1.60;;
12719;SDS011;6424;48.520;11.228;2022-07-29T08:23:19;1.77;;;1.40;;
12719;SDS011;6424;48.520;11.228;2022-07-29T08:26:00;2.22;;;1.67;;
12719;SDS011;6424;48.520;11.228;2022-07-29T08:28:42;2.00;;;1.40;;
12719;SDS011;6424;48.520;11.228;2022-07-29T08:31:25;2.27;;;1.63;;
12719;SDS011;6424;48.520;11.228;2022-07-29T08:34:06;2.10;;;1.90;;
12719;SDS011;6424;48.520;11.228;2022-07-29T08:36:47;1.70;;;1.57;;
12719;SDS011;6424;48.520;11.228;2022-07-29T08:39:28;2.47;;;1.90;;
12719;SDS011;6424;48.520;11.228;2022-07-29T08:42:08;2.23;;;1.70;;
12719;SDS011;6424;48.520;11.228;2022-07-29T08:44:51;1.70;;;1.60;;
12719;SDS011;6424;48.520;11.228;2022-07-29T08:47:33;1.70;;;1.60;;
12719;SDS011;6424;48.520;11.228;2022-07-29T08:50:18;3.03;;;1.93;;
12719;SDS011;6424;48.520;11.228;2022-07-29T08:52:44;2.67;;;1.70;;
12719;SDS011;6424;48.520;11.228;2022-07-29T08:55:25;2.83;;;2.00;;
12719;SDS011;6424;48.520;11.228;2022-07-29T08:58:07;2.13;;;1.93;;
12719;SDS011;6424;48.520;11.228;2022-07-29T09:00:52;2.27;;;1.73;;
12719;SDS011;6424;48.520;11.228;2022-07-29T09:03:36;1.93;;;1.83;;
12719;SDS011;6424;48.520;11.228;2022-07-29T09:06:18;3.00;;;1.83;;
12719;SDS011;6424;48.520;11.228;2022-07-29T09:09:01;2.23;;;2.07;;
12719;SDS011;6424;48.520;11.228;2022-07-29T09:11:42;2.07;;;1.93;;
12719;SDS011;6424;48.520;11.228;2022-07-29T09:14:23;2.53;;;2.00;;
12719;SDS011;6424;48.520;11.228;2022-07-29T09:17:04;4.77;;;1.90;;
12719;SDS011;6424;48.520;11.228;2022-07-29T09:19:46;2.40;;;2.20;;
12719;SDS011;6424;48.520;11.228;2022-07-29T09:22:12;2.53;;;2.30;;
12719;SDS011;6424;48.520;11.228;2022-07-29T09:25:08;2.53;;;2.00;;
12719;SDS011;6424;48.520;11.228;2022-07-29T09:27:52;3.10;;;2.33;;
12719;SDS011;6424;48.520;11.228;2022-07-29T09:30:33;3.17;;;2.30;;
12719;SDS011;6424;48.520;11.228;2022-07-29T09:33:13;2.10;;;1.93;;
12719;SDS011;6424;48.520;11.228;2022-07-29T09:36:04;2.70;;;1.80;;
12719;SDS011;6424;48.520;11.228;2022-07-29T09:38:56;5.17;;;2.40;;
12719;SDS011;6424;48.520;11.228;2022-07-29T09:41:45;2.50;;;2.13;;
12719;SDS011;6424;48.520;11.228;2022-07-29T09:44:39;2.50;;;2.30;;
12719;SDS011;6424;48.520;11.228;2022-07-29T09:47:42;4.17;;;2.57;;
12719;SDS011;6424;48.520;11.228;2022-07-29T09:50:35;4.70;;;2.40;;
12719;SDS011;6424;48.520;11.228;2022-07-29T09:53:30;4.30;;;2.60;;
12719;SDS011;6424;48.520;11.228;2022-07-29T09:56:18;4.20;;;2.63;;
12719;SDS011;6424;48.520;11.228;2022-07-29T09:59:05;3.70;;;2.80;;
12719;SDS011;6424;48.520;11.228;2022-07-29T10:01:46;3.03;;;2.73;;
12719;SDS011;6424;48.520;11.228;2022-07-29T10:04:42;3.93;;;3.30;;
12719;SDS011;6424;48.520;11.228;2022-07-29T10:07:23;3.37;;;2.83;;
12719;SDS011;6424;48.520;11.228;2022-07-29T10:10:04;3.80;;;3.30;;
12719;SDS011;6424;48.520;11.228;2022-07-29T10:12:50;3.30;;;2.73;;
12719;SDS011;6424;48.520;11.228;2022-07-29T10:15:32;2.63;;;2.40;;
12719;SDS011;6424;48.520;11.228;2022-07-29T10:18:02;5.17;;;2.50;;
12719;SDS011;6424;48.520;11.228;2022-07-29T10:20:43;2.73;;;2.53;;
12719;SDS011;6424;48.520;11.228;2022-07-29T10:23:24;2.87;;;2.30;;
12719;SDS011;6424;48.520;11.228;2022-07-29T10:26:05;2.03;;;1.80;;
12719;SDS011;6424;48.520;11.228;2022-07-29T10:28:32;3.90;;;2.10;;
12719;SDS011;6424;48.520;11.228;2022-07-29T10:34:30;3.00;;;2.20;;
12719;SDS011;6424;48.520;11.228;2022-07-29T10:37:34;2.20;;;2.00;;
12719;SDS011;6424;48.520;11.228;2022-07-29T10:40:27;3.43;;;2.40;;
12719;SDS011;6424;48.520;11.228;2022-07-29T10:43:37;2.47;;;2.15;;
12719;SDS011;6424;48.520;11.228;2022-07-29T10:46:23;2.90;;;2.20;;
12719;SDS011;6424;48.520;11.228;2022-07-29T10:49:06;2.70;;;2.17;;
12719;SDS011;6424;48.520;11.228;2022-07-29T10:52:01;2.50;;;2.17;;
12719;SDS011;6424;48.520;11.228;2022-07-29T10:54:45;2.27;;;2.07;;
12719;SDS011;6424;48.520;11.228;2022-07-29T10:57:31;2.63;;;2.00;;
12719;SDS011;6424;48.520;11.228;2022-07-29T11:02:54;3.60;;;2.60;;
12719;SDS011;6424;48.520;11.228;2022-07-29T11:05:54;2.72;;;2.42;;
12719;SDS011;6424;48.520;11.228;2022-07-29T11:08:36;2.72;;;2.45;;
12719;SDS011;6424;48.520;11.228;2022-07-29T11:14:07;3.15;;;2.63;;
12719;SDS011;6424;48.520;11.228;2022-07-29T11:17:01;3.97;;;2.80;;
12719;SDS011;6424;48.520;11.228;2022-07-29T11:19:44;2.83;;;2.58;;
12719;SDS011;6424;48.520;11.228;2022-07-29T11:22:32;2.92;;;2.50;;
12719;SDS011;6424;48.520;11.228;2022-07-29T11:25:14;4.03;;;2.80;;
12719;SDS011;6424;48.520;11.228;2022-07-29T11:28:08;3.83;;;2.78;;
12719;SDS011;6424;48.520;11.228;2022-07-29T11:30:50;3.25;;;2.90;;
12719;SDS011;6424;48.520;11.228;2022-07-29T11:33:33;4.60;;;2.70;;
12719;SDS011;6424;48.520;11.228;2022-07-29T11:36:14;2.90;;;2.70;;
12719;SDS011;6424;48.520;11.228;2022-07-29T11:39:24;3.65;;;2.60;;
12719;SDS011;6424;48.520;11.228;2022-07-29T11:47:54;7.13;;;3.30;;
12719;SDS011;6424;48.520;11.228;2022-07-29T11:50:40;3.22;;;2.47;;
12719;SDS011;6424;48.520;11.228;2022-07-29T11:53:20;4.03;;;2.75;;
12719;SDS011;6424;48.520;11.228;2022-07-29T11:56:01;3.20;;;2.80;;
12719;SDS011;6424;48.520;11.228;2022-07-29T11:58:44;4.72;;;2.35;;
12719;SDS011;6424;48.520;11.228;2022-07-29T12:01:25;4.85;;;2.42;;
12719;SDS011;6424;48.520;11.228;2022-07-29T12:04:07;5.10;;;2.50;;
12719;SDS011;6424;48.520;11.228;2022-07-29T12:06:49;2.50;;;2.30;;
12719;SDS011;6424;48.520;11.228;2022-07-29T12:09:30;4.93;;;2.45;;
12719;SDS011;6424;48.520;11.228;2022-07-29T12:12:11;2.90;;;2.60;;
12719;SDS011;6424;48.520;11.228;2022-07-29T12:14:41;2.65;;;2.30;;
12719;SDS011;6424;48.520;11.228;2022-07-29T12:17:29;3.50;;;2.03;;
12719;SDS011;6424;48.520;11.228;2022-07-29T12:20:11;3.30;;;2.22;;
12719;SDS011;6424;48.520;11.228;2022-07-29T12:22:52;2.97;;;2.17;;
12719;SDS011;6424;48.520;11.228;2022-07-29T12:25:34;2.35;;;2.10;;
12719;SDS011;6424;48.520;11.228;2022-07-29T12:28:17;3.88;;;2.28;;
12719;SDS011;6424;48.520;11.228;2022-07-29T12:31:01;2.25;;;2.05;;
12719;SDS011;6424;48.520;11.228;2022-07-29T12:33:43;2.15;;;1.95;;
12719;SDS011;6424;48.520;11.228;2022-07-29T12:36:33;2.63;;;1.95;;
12719;SDS011;6424;48.520;11.228;2022-07-29T12:39:15;6.72;;;2.30;;
12719;SDS011;6424;48.520;11.228;2022-07-29T12:41:57;3.08;;;2.03;;
12719;SDS011;6424;48.520;11.228;2022-07-29T12:44:44;2.88;;;2.25;;
12719;SDS011;6424;48.520;11.228;2022-07-29T12:47:25;2.40;;;1.95;;
12719;SDS011;6424;48.520;11.228;2022-07-29T12:50:13;2.28;;;1.92;;
12719;SDS011;6424;48.520;11.228;2022-07-29T12:53:11;4.68;;;2.33;;
12719;SDS011;6424;48.520;11.228;2022-07-29T12:55:53;2.17;;;1.98;;
12719;SDS011;6424;48.520;11.228;2022-07-29T12:58:39;2.33;;;1.92;;
12719;SDS011;6424;48.520;11.228;2022-07-29T13:01:21;4.15;;;2.17;;
12719;SDS011;6424;48.520;11.228;2022-07-29T13:04:02;2.00;;;1.80;;
12719;SDS011;6424;48.520;11.228;2022-07-29T13:06:44;5.55;;;2.20;;
12719;SDS011;6424;48.520;11.228;2022-07-29T13:09:35;3.47;;;2.25;;
12719;SDS011;6424;48.520;11.228;2022-07-29T13:12:17;2.63;;;1.90;;
12719;SDS011;6424;48.520;11.228;2022-07-29T13:14:58;2.50;;;2.30;;
12719;SDS011;6424;48.520;11.228;2022-07-29T13:17:42;4.17;;;2.10;;
12719;SDS011;6424;48.520;11.228;2022-07-29T13:20:24;2.10;;;1.90;;
12719;SDS011;6424;48.520;11.228;2022-07-29T13:23:07;2.67;;;1.80;;
12719;SDS011;6424;48.520;11.228;2022-07-29T13:25:33;4.07;;;2.20;;
12719;SDS011;6424;48.520;11.228;2022-07-29T13:28:14;2.20;;;2.00;;
12719;SDS011;6424;48.520;11.228;2022-07-29T13:30:55;4.37;;;2.40;;
12719;SDS011;6424;48.520;11.228;2022-07-29T13:33:36;2.67;;;2.30;;
12719;SDS011;6424;48.520;11.228;2022-07-29T13:36:17;2.50;;;2.30;;
12719;SDS011;6424;48.520;11.228;2022-07-29T13:38:58;3.67;;;2.37;;
12719;SDS011;6424;48.520;11.228;2022-07-29T13:41:41;3.03;;;2.03;;
12719;SDS011;6424;48.520;11.228;2022-07-29T13:44:22;2.57;;;2.37;;
12719;SDS011;6424;48.520;11.228;2022-07-29T13:47:02;2.50;;;2.03;;
12719;SDS011;6424;48.520;11.228;2022-07-29T13:49:43;2.60;;;2.07;;
12719;SDS011;6424;48.520;11.228;2022-07-29T13:52:24;3.67;;;2.17;;
12719;SDS011;6424;48.520;11.228;2022-07-29T13:54:50;3.50;;;2.37;;
12719;SDS011;6424;48.520;11.228;2022-07-29T13:57:31;3.77;;;2.17;;
12719;SDS011;6424;48.520;11.228;2022-07-29T14:00:12;3.00;;;2.43;;
12719;SDS011;6424;48.520;11.228;2022-07-29T14:02:53;2.67;;;2.47;;
12719;SDS011;6424;48.520;11.228;2022-07-29T14:05:19;2.23;;;2.10;;
12719;SDS011;6424;48.520;11.228;2022-07-29T14:08:00;3.33;;;3.03;;
12719;SDS011;6424;48.520;11.228;2022-07-29T14:10:41;3.00;;;2.70;;
12719;SDS011;6424;48.520;11.228;2022-07-29T14:13:21;2.73;;;2.40;;
12719;SDS011;6424;48.520;11.228;2022-07-29T14:16:02;3.57;;;2.60;;
12719;SDS011;6424;48.520;11.228;2022-07-29T14:18:43;2.77;;;2.43;;
12719;SDS011;6424;48.520;11.228;2022-07-29T14:21:24;5.53;;;2.50;;
12719;SDS011;6424;48.520;11.228;2022-07-29T14:24:05;4.23;;;2.53;;
12719;SDS011;6424;48.520;11.228;2022-07-29T14:26:46;3.40;;;2.30;;
12719;SDS011;6424;48.520;11.228;2022-07-29T14:29:27;2.43;;;2.23;;
12719;SDS011;6424;48.520;11.228;2022-07-29T14:32:09;3.30;;;2.20;;
12719;SDS011;6424;48.520;11.228;2022-07-29T14:34:50;3.00;;;2.30;;
12719;SDS011;6424;48.520;11.228;2022-07-29T14:37:31;3.90;;;2.17;;
12719;SDS011;6424;48.520;11.228;2022-07-29T14:40:11;3.37;;;2.43;;
12719;SDS011;6424;48.520;11.228;2022-07-29T14:42:52;3.07;;;2.60;;
12719;SDS011;6424;48.520;11.228;2022-07-29T14:45:33;2.37;;;2.17;;
12719;SDS011;6424;48.520;11.228;2022-07-29T14:48:14;3.27;;;2.50;;
12719;SDS011;6424;48.520;11.228;2022-07-29T14:50:55;4.37;;;2.30;;
12719;SDS011;6424;48.520;11.228;2022-07-29T14:53:36;3.93;;;2.50;;
12719;SDS011;6424;48.520;11.228;2022-07-29T14:56:17;3.90;;;2.20;;
12719;SDS011;6424;48.520;11.228;2022-07-29T14:58:57;3.40;;;2.77;;
12719;SDS011;6424;48.520;11.228;2022-07-29T15:01:38;5.37;;;2.60;;
12719;SDS011;6424;48.520;11.228;2022-07-29T15:04:19;3.37;;;2.27;;
12719;SDS011;6424;48.520;11.228;2022-07-29T15:07:00;4.40;;;2.20;;
12719;SDS011;6424;48.520;11.228;2022-07-29T15:09:26;4.97;;;2.77;;
12719;SDS011;6424;48.520;11.228;2022-07-29T15:12:07;2.43;;;2.10;;
12719;SDS011;6424;48.520;11.228;2022-07-29T15:14:50;2.93;;;2.40;;
12719;SDS011;6424;48.520;11.228;2022-07-29T15:17:31;4.70;;;2.37;;
12719;SDS011;6424;48.520;11.228;2022-07-29T15:20:12;3.53;;;1.90;;
12719;SDS011;6424;48.520;11.228;2022-07-29T15:22:53;3.03;;;2.37;;
12719;SDS011;6424;48.520;11.228;2022-07-29T15:25:35;2.63;;;2.17;;
12719;SDS011;6424;48.520;11.228;2022-07-29T15:28:16;2.13;;;2.03;;
12719;SDS011;6424;48.520;11.228;2022-07-29T15:30:42;3.80;;;2.20;;
12719;SDS011;6424;48.520;11.228;2022-07-29T15:33:08;5.10;;;2.63;;
12719;SDS011;6424;48.520;11.228;2022-07-29T15:35:49;4.80;;;2.70;;
12719;SDS011;6424;48.520;11.228;2022-07-29T15:38:30;4.70;;;2.43;;
12719;SDS011;6424;48.520;11.228;2022-07-29T15:41:14;4.27;;;2.40;;
12719;SDS011;6424;48.520;11.228;2022-07-29T15:43:57;2.50;;;2.30;;
12719;SDS011;6424;48.520;11.228;2022-07-29T15:46:38;3.60;;;2.27;;
12719;SDS011;6424;48.520;11.228;2022-07-29T15:49:38;3.03;;;2.70;;
12719;SDS011;6424;48.520;11.228;2022-07-29T15:52:20;3.97;;;2.60;;
12719;SDS011;6424;48.520;11.228;2022-07-29T15:54:46;3.93;;;2.83;;
12719;SDS011;6424;48.520;11.228;2022-07-29T15:57:27;2.80;;;2.50;;
12719;SDS011;6424;48.520;11.228;2022-07-29T16:00:08;4.45;;;2.58;;
12719;SDS011;6424;48.520;11.228;2022-07-29T16:02:49;2.30;;;2.10;;
12719;SDS011;6424;48.520;11.228;2022-07-29T16:05:30;4.40;;;2.30;;
12719;SDS011;6424;48.520;11.228;2022-07-29T16:08:11;3.17;;;2.17;;
12719;SDS011;6424;48.520;11.228;2022-07-29T16:10:51;3.63;;;2.10;;
12719;SDS011;6424;48.520;11.228;2022-07-29T16:13:32;4.27;;;1.90;;
12719;SDS011;6424;48.520;11.228;2022-07-29T16:16:13;2.27;;;1.63;;
12719;SDS011;6424;48.520;11.228;2022-07-29T16:18:55;1.90;;;1.67;;
12719;SDS011;6424;48.520;11.228;2022-07-29T16:21:36;6.20;;;1.97;;
12719;SDS011;6424;48.520;11.228;2022-07-29T16:24:17;1.57;;;1.43;;
12719;SDS011;6424;48.520;11.228;2022-07-29T16:26:58;5.43;;;1.83;;
12719;SDS011;6424;48.520;11.228;2022-07-29T16:29:39;2.27;;;1.83;;
12719;SDS011;6424;48.520;11.228;2022-07-29T16:32:20;1.67;;;1.50;;
12719;SDS011;6424;48.520;11.228;2022-07-29T16:35:01;2.20;;;1.80;;
12719;SDS011;6424;48.520;11.228;2022-07-29T16:37:44;2.50;;;2.10;;
12719;SDS011;6424;48.520;11.228;2022-07-29T16:40:10;3.27;;;2.10;;
12719;SDS011;6424;48.520;11.228;2022-07-29T16:42:51;4.57;;;2.37;;
12719;SDS011;6424;48.520;11.228;2022-07-29T16:45:32;2.97;;;2.20;;